Dati meteorologici dell'aviazione (METAR)     LHBP Budapest Liszt Ferenc International Airport
Temperatura
32°C Temperatura
17°C Punto di rugiada
41% Umidità



Vento
10 KM/H
6 MPH
3 M/S
5 KTS



170°
Sud
Condizioni attuali

Chiaro Chiaro
Pressione 1013.92 (hPa) - 29.94 (inHg)
Visibilità 6.2 (miglio) - 10 (km)
Aeroporto
Codice-Aeroporto LHBP

Posizione: Budapest Liszt Ferenc International Airport
Distanza: 14 (km)

Metar:
LHBP 261200Z 17005KT 100V230 CAVOK 32/17 Q1014 NOSIG

Ore: 2021-07-26 13:00 BST